createdAt,value
2018-06-07T00:00:56.966Z,0
2018-06-07T00:02:06.710Z,0
2018-06-07T00:03:16.189Z,0
2018-06-07T00:04:25.942Z,0
2018-06-07T00:05:35.687Z,0
2018-06-07T00:06:45.171Z,0
2018-06-07T00:07:54.917Z,0
2018-06-07T00:09:04.390Z,0
2018-06-07T00:10:14.129Z,0
2018-06-07T00:11:23.870Z,0
2018-06-07T00:12:33.613Z,0
2018-06-07T00:13:43.353Z,0
2018-06-07T00:14:53.359Z,4
2018-06-07T00:16:03.364Z,4
2018-06-07T00:17:15.381Z,4
2018-06-07T00:18:25.119Z,4
2018-06-07T00:19:34.603Z,4
2018-06-07T00:20:44.074Z,4
2018-06-07T00:21:54.084Z,4
2018-06-07T00:23:03.829Z,4
2018-06-07T00:24:13.572Z,4
2018-06-07T00:25:23.575Z,0
2018-06-07T00:26:33.320Z,0
2018-06-07T00:27:43.326Z,0
2018-06-07T00:28:53.064Z,0
2018-06-07T00:30:02.803Z,0
2018-06-07T00:31:12.552Z,0
2018-06-07T00:32:22.029Z,4
2018-06-07T00:33:31.802Z,4
2018-06-07T00:34:43.550Z,4
2018-06-07T00:35:53.026Z,4
2018-06-07T00:37:03.033Z,4
2018-06-07T00:38:12.773Z,4
2018-06-07T00:39:22.054Z,4
2018-06-07T00:40:32.156Z,4
2018-06-07T00:41:41.634Z,4
2018-06-07T00:42:51.640Z,4
2018-06-07T00:44:01.434Z,4
2018-06-07T00:45:11.461Z,4
2018-06-07T00:46:21.272Z,8
2018-06-07T00:47:31.361Z,8
2018-06-07T00:48:41.382Z,4
2018-06-07T00:49:51.412Z,4
2018-06-07T00:51:01.422Z,8
2018-06-07T00:52:10.635Z,8
2018-06-07T00:53:20.647Z,8
2018-06-07T00:54:30.126Z,8
2018-06-07T00:55:40.133Z,8
2018-06-07T00:56:50.140Z,8
2018-06-07T00:57:59.883Z,8
2018-06-07T00:59:09.888Z,12
2018-06-07T01:00:19.902Z,12
2018-06-07T01:01:29.644Z,12
2018-06-07T01:02:39.666Z,12
2018-06-07T01:03:49.403Z,16
2018-06-07T01:04:59.143Z,12
2018-06-07T01:06:08.884Z,16
2018-06-07T01:07:18.894Z,16
2018-06-07T01:08:28.902Z,20
2018-06-07T01:09:38.640Z,20
2018-06-07T01:10:48.680Z,24
2018-06-07T01:11:58.423Z,20
2018-06-07T01:13:08.505Z,24
2018-06-07T01:14:18.250Z,28
2018-06-07T01:15:27.987Z,28
2018-06-07T01:16:37.725Z,28
2018-06-07T01:17:47.735Z,28
2018-06-07T01:18:57.475Z,32
2018-06-07T01:20:06.699Z,32
2018-06-07T01:21:16.791Z,36
2018-06-07T01:22:26.534Z,40
2018-06-07T01:23:36.276Z,44
2018-06-07T01:24:46.023Z,44
2018-06-07T01:25:56.029Z,48
2018-06-07T01:27:06.030Z,48
2018-06-07T01:28:15.507Z,56
2018-06-07T01:29:25.244Z,60
2018-06-07T01:30:35.249Z,60
2018-06-07T01:31:45.251Z,64
2018-06-07T01:32:55.266Z,68
2018-06-07T01:34:04.205Z,72
2018-06-07T01:35:13.943Z,80
2018-06-07T01:36:23.743Z,84
2018-06-07T01:37:33.771Z,88
2018-06-07T01:38:45.789Z,96
2018-06-07T01:39:55.793Z,100
2018-06-07T01:41:05.537Z,108
2018-06-07T01:42:15.545Z,120
2018-06-07T01:43:25.299Z,124
2018-06-07T01:44:35.064Z,136
2018-06-07T01:45:45.068Z,144
2018-06-07T01:46:54.009Z,160
2018-06-07T01:48:03.753Z,176
2018-06-07T01:49:13.494Z,188
2018-06-07T01:50:23.238Z,208
2018-06-07T01:51:32.717Z,220
2018-06-07T01:52:42.189Z,232
2018-06-07T01:53:52.199Z,252
2018-06-07T01:55:02.206Z,264
2018-06-07T01:56:13.989Z,280
2018-06-07T01:57:23.991Z,296
2018-06-07T01:58:33.998Z,312
2018-06-07T01:59:44.002Z,328
2018-06-07T02:00:53.747Z,336
2018-06-07T02:02:03.218Z,356
2018-06-07T02:03:12.693Z,372
2018-06-07T02:04:22.439Z,388
2018-06-07T02:05:32.445Z,408
2018-06-07T02:06:42.449Z,436
2018-06-07T02:07:51.927Z,456
2018-06-07T02:09:01.929Z,484
2018-06-07T02:10:11.986Z,504
2018-06-07T02:11:21.736Z,528
2018-06-07T02:12:31.743Z,552
2018-06-07T02:13:41.484Z,572
2018-06-07T02:14:51.487Z,596
2018-06-07T02:16:01.224Z,620
2018-06-07T02:17:11.232Z,640
2018-06-07T02:18:20.983Z,664
2018-06-07T02:19:30.463Z,692
2018-06-07T02:20:39.938Z,720
2018-06-07T02:21:49.676Z,752
2018-06-07T02:22:59.686Z,788
2018-06-07T02:24:09.160Z,824
2018-06-07T02:25:19.167Z,852
2018-06-07T02:26:28.912Z,872
2018-06-07T02:27:38.384Z,888
2018-06-07T02:28:48.389Z,896
2018-06-07T02:29:58.127Z,908
2018-06-07T02:31:07.871Z,920
2018-06-07T02:32:17.633Z,932
2018-06-07T02:33:27.109Z,952
2018-06-07T02:34:36.321Z,976
2018-06-07T02:35:46.339Z,1008
2018-06-07T02:36:56.366Z,1044
2018-06-07T02:38:06.736Z,1084
2018-06-07T02:39:16.815Z,1128
2018-06-07T02:40:26.826Z,1180
2018-06-07T02:41:36.301Z,1232
2018-06-07T02:42:45.512Z,1284
2018-06-07T02:43:55.265Z,1336
2018-06-07T02:45:05.278Z,1376
2018-06-07T02:46:15.288Z,1416
2018-06-07T02:47:25.303Z,1448
2018-06-07T02:48:34.806Z,1480
2018-06-07T02:49:44.546Z,1516
2018-06-07T02:50:54.561Z,1552
2018-06-07T02:52:04.566Z,1588
2018-06-07T02:53:14.049Z,1620
2018-06-07T02:54:23.527Z,1652
2018-06-07T02:55:33.540Z,1680
2018-06-07T02:56:43.547Z,1708
2018-06-07T02:57:53.288Z,1732
2018-06-07T02:59:03.023Z,1752
2018-06-07T03:04:30.308Z,1824
2018-06-07T03:05:40.054Z,1844
2018-06-07T03:06:49.534Z,1864
2018-06-07T03:07:59.539Z,1884
2018-06-07T03:09:09.016Z,1904
2018-06-07T03:10:18.499Z,1924
2018-06-07T03:11:28.508Z,1944
2018-06-07T03:12:38.515Z,1956
2018-06-07T03:13:48.528Z,1964
2018-06-07T03:14:58.534Z,1976
2018-06-07T03:16:08.277Z,1988
2018-06-07T03:17:17.757Z,2020
2018-06-07T03:18:27.493Z,2056
2018-06-07T03:19:37.501Z,2088
2018-06-07T03:20:46.976Z,2112
2018-06-07T03:21:56.456Z,2132
2018-06-07T03:23:06.199Z,2156
2018-06-07T03:24:15.670Z,2176
2018-06-07T03:25:25.407Z,2188
2018-06-07T03:26:35.158Z,2192
2018-06-07T03:27:44.634Z,2168
2018-06-07T03:28:54.109Z,2124
2018-06-07T03:30:03.855Z,2080
2018-06-07T03:31:13.874Z,2052
2018-06-07T03:32:23.884Z,2068
2018-06-07T03:33:33.895Z,2080
2018-06-07T03:34:43.366Z,2088
2018-06-07T03:35:53.107Z,2088
2018-06-07T03:37:03.118Z,2084
2018-06-07T03:38:13.134Z,2084
2018-06-07T03:39:23.140Z,2088
2018-06-07T03:40:32.879Z,2104
2018-06-07T03:41:42.885Z,2104
2018-06-07T03:42:52.633Z,2104
2018-06-07T03:44:02.371Z,2088
2018-06-07T03:45:11.849Z,2068
2018-06-07T03:46:21.851Z,2056
2018-06-07T03:47:31.863Z,2052
2018-06-07T03:48:41.871Z,2064
2018-06-07T03:49:51.617Z,2060
2018-06-07T03:51:01.630Z,2072
2018-06-07T03:52:11.114Z,2084
2018-06-07T03:53:20.858Z,2088
2018-06-07T03:54:30.341Z,2088
2018-06-07T03:55:40.357Z,2116
2018-06-07T03:56:50.108Z,2140
2018-06-07T03:57:59.848Z,2160
2018-06-07T03:59:09.854Z,2172
2018-06-07T04:00:19.602Z,2184
2018-06-07T04:01:29.353Z,2192
2018-06-07T04:02:39.097Z,2208
2018-06-07T04:03:49.103Z,2220
2018-06-07T04:04:58.851Z,2240
2018-06-07T04:06:08.644Z,2256
2018-06-07T04:07:18.387Z,2272
2018-06-07T04:08:27.872Z,2280
2018-06-07T04:09:37.357Z,2280
2018-06-07T04:10:47.364Z,2264
2018-06-07T04:11:57.373Z,2228
2018-06-07T04:13:06.851Z,2192
2018-06-07T04:14:16.326Z,2140
2018-06-07T04:15:26.334Z,2072
2018-06-07T04:16:35.813Z,2020
2018-06-07T04:17:45.549Z,2012
2018-06-07T04:18:55.288Z,2044
2018-06-07T04:20:05.030Z,2092
2018-06-07T04:21:14.773Z,2152
2018-06-07T04:22:24.789Z,2196
2018-06-07T04:23:34.822Z,2236
2018-06-07T04:24:44.835Z,2268
2018-06-07T04:25:54.575Z,2308
2018-06-07T04:27:04.317Z,2332
2018-06-07T04:28:14.326Z,2336
2018-06-07T04:29:24.111Z,2348
2018-06-07T04:30:34.151Z,2388
2018-06-07T04:31:44.156Z,2392
2018-06-07T04:32:53.373Z,2376
2018-06-07T04:34:03.380Z,2332
2018-06-07T04:35:13.123Z,2292
2018-06-07T04:36:22.865Z,2232
2018-06-07T04:37:32.631Z,2208
2018-06-07T04:38:42.648Z,2196
2018-06-07T04:39:52.653Z,2212
2018-06-07T04:41:02.668Z,2268
2018-06-07T04:42:12.420Z,2336
2018-06-07T04:43:22.427Z,2444
2018-06-07T04:44:32.169Z,2424
2018-06-07T04:45:42.178Z,2492
2018-06-07T04:46:52.214Z,2488
2018-06-07T04:48:02.219Z,2512
2018-06-07T04:49:11.963Z,2484
2018-06-07T04:50:21.971Z,2500
2018-06-07T04:51:31.984Z,2544
2018-06-07T04:52:41.990Z,2604
2018-06-07T04:53:51.736Z,2660
2018-06-07T04:55:01.745Z,2696
2018-06-07T04:56:11.488Z,2716
2018-06-07T04:57:21.504Z,2716
2018-06-07T04:58:31.246Z,2736
2018-06-07T04:59:40.985Z,2744
2018-06-07T05:00:50.466Z,2748
2018-06-07T05:02:00.483Z,2760
2018-06-07T05:03:09.962Z,2764
2018-06-07T05:04:19.979Z,2772
2018-06-07T05:05:29.723Z,2776
2018-06-07T05:06:39.689Z,2784
2018-06-07T05:07:49.872Z,2792
2018-06-07T05:08:59.609Z,2800
2018-06-07T05:10:09.096Z,2812
2018-06-07T05:11:19.109Z,2812
2018-06-07T05:12:29.059Z,2816
2018-06-07T05:13:38.539Z,2816
2018-06-07T05:14:48.559Z,2824
2018-06-07T05:15:58.575Z,2820
2018-06-07T05:17:08.053Z,2824
2018-06-07T05:18:17.795Z,2828
2018-06-07T05:19:27.797Z,2840
2018-06-07T05:20:37.818Z,2840
2018-06-07T05:21:47.828Z,2840
2018-06-07T05:22:57.837Z,2840
2018-06-07T05:24:07.847Z,2848
2018-06-07T05:25:17.855Z,2848
2018-06-07T05:26:27.608Z,2844
2018-06-07T05:27:37.626Z,2852
2018-06-07T05:28:47.647Z,2844
2018-06-07T05:29:57.655Z,2840
2018-06-07T05:31:07.421Z,2844
2018-06-07T05:32:16.633Z,2852
2018-06-07T05:33:26.654Z,2852
2018-06-07T05:34:36.395Z,2856
2018-06-07T05:35:46.412Z,2856
2018-06-07T05:36:56.429Z,2856
2018-06-07T05:38:06.450Z,2860
2018-06-07T05:39:16.131Z,2860
2018-06-07T05:40:25.875Z,2864
2018-06-07T05:41:35.620Z,2860
2018-06-07T05:42:45.629Z,2868
2018-06-07T05:43:55.657Z,2868
2018-06-07T05:45:05.675Z,2892
2018-06-07T05:46:15.423Z,2884
2018-06-07T05:47:25.167Z,2876
2018-06-07T05:48:35.178Z,2880
2018-06-07T05:49:44.930Z,2880
2018-06-07T05:50:54.942Z,2884
2018-06-07T05:52:04.825Z,2888
2018-06-07T05:53:14.858Z,2884
2018-06-07T05:54:24.868Z,2880
2018-06-07T05:55:34.342Z,2888
2018-06-07T05:56:43.825Z,2892
2018-06-07T05:57:53.845Z,2900
2018-06-07T05:59:03.865Z,2908
2018-06-07T06:00:13.118Z,2908
2018-06-07T06:01:22.926Z,2904
2018-06-07T06:02:32.991Z,2908
2018-06-07T06:03:42.510Z,2916
2018-06-07T06:04:52.259Z,2912
2018-06-07T06:06:02.009Z,2912
2018-06-07T06:07:11.820Z,2916
2018-06-07T06:08:21.880Z,2920
2018-06-07T06:09:31.927Z,2940
2018-06-07T06:10:41.466Z,2924
2018-06-07T06:11:51.487Z,2932
2018-06-07T06:13:01.490Z,2936
2018-06-07T06:14:11.503Z,2936
2018-06-07T06:15:21.244Z,2940
2018-06-07T06:16:31.255Z,2940
2018-06-07T06:17:40.732Z,2948
2018-06-07T06:18:50.475Z,2952
2018-06-07T06:19:59.953Z,2952
2018-06-07T06:21:09.432Z,2956
2018-06-07T06:22:18.911Z,2964
2018-06-07T06:23:28.120Z,2964
2018-06-07T06:24:38.134Z,2968
2018-06-07T06:25:47.874Z,2976
2018-06-07T06:26:57.968Z,2976
2018-06-07T06:28:07.990Z,2976
2018-06-07T06:29:17.735Z,2984
2018-06-07T06:30:27.747Z,3008
2018-06-07T06:31:37.757Z,2996
2018-06-07T06:32:47.500Z,3000
2018-06-07T06:33:57.247Z,2996
2018-06-07T06:35:07.001Z,3000
2018-06-07T06:36:17.020Z,3004
2018-06-07T06:37:27.029Z,3008
2018-06-07T06:38:36.507Z,3012
2018-06-07T06:39:46.516Z,3012
2018-06-07T06:40:56.262Z,3012
2018-06-07T06:42:06.012Z,3020
2018-06-07T06:43:15.759Z,3020
2018-06-07T06:44:25.508Z,3028
2018-06-07T06:45:35.251Z,3028
2018-06-07T06:46:44.734Z,3036
2018-06-07T06:47:54.478Z,3036
2018-06-07T06:49:04.492Z,3040
2018-06-07T06:50:14.282Z,3068
2018-06-07T06:51:24.035Z,3052
2018-06-07T06:52:33.779Z,3060
2018-06-07T06:53:43.792Z,3056
2018-06-07T06:54:52.998Z,3064
2018-06-07T06:56:03.065Z,3068
2018-06-07T06:57:13.280Z,3068
2018-06-07T06:58:23.019Z,3080
2018-06-07T06:59:32.762Z,3084
2018-06-07T07:00:42.775Z,3084
2018-06-07T07:01:52.781Z,3096
2018-06-07T07:03:02.790Z,3104
2018-06-07T07:04:12.923Z,3104
2018-06-07T07:05:22.988Z,3112
2018-06-07T07:06:32.726Z,3124
2018-06-07T07:07:42.739Z,3124
2018-06-07T07:08:52.530Z,3128
2018-06-07T07:10:02.553Z,3136
2018-06-07T07:11:12.559Z,3140
2018-06-07T07:12:22.301Z,3144
2018-06-07T07:13:31.778Z,3156
2018-06-07T07:14:41.786Z,3156
2018-06-07T07:15:51.798Z,3156
2018-06-07T07:17:01.818Z,3156
2018-06-07T07:18:11.568Z,3176
2018-06-07T07:19:21.583Z,3180
2018-06-07T07:20:31.607Z,3192
2018-06-07T07:21:41.614Z,3192
2018-06-07T07:22:51.099Z,3196
2018-06-07T07:24:00.043Z,3200
2018-06-07T07:25:09.524Z,3212
2018-06-07T07:26:19.539Z,3216
2018-06-07T07:27:29.552Z,3224
2018-06-07T07:28:39.296Z,3240
2018-06-07T07:29:48.770Z,3252
2018-06-07T07:30:58.515Z,3260
2018-06-07T07:32:07.725Z,3272
2018-06-07T07:33:17.735Z,3288
2018-06-07T07:34:27.855Z,3304
2018-06-07T07:35:37.423Z,3316
2018-06-07T07:36:46.691Z,3312
2018-06-07T07:37:56.520Z,3312
2018-06-07T07:39:06.449Z,3320
2018-06-07T07:40:16.467Z,3332
2018-06-07T07:41:26.510Z,3348
2018-06-07T07:42:36.027Z,3360
2018-06-07T07:43:45.775Z,3372
2018-06-07T07:44:55.790Z,3388
2018-06-07T07:46:05.577Z,3384
2018-06-07T07:47:15.329Z,3400
2018-06-07T07:48:24.806Z,3416
2018-06-07T07:49:34.552Z,3424
2018-06-07T07:50:44.377Z,3460
2018-06-07T07:51:53.613Z,3440
2018-06-07T07:53:03.632Z,3452
2018-06-07T07:54:13.375Z,3476
2018-06-07T07:55:23.382Z,3500
2018-06-07T07:56:33.401Z,3520
2018-06-07T07:57:43.415Z,3520
2018-06-07T07:58:53.169Z,3508
2018-06-07T08:00:03.192Z,3492
2018-06-07T08:01:13.216Z,3480
2018-06-07T08:02:22.695Z,3460
2018-06-07T08:03:32.439Z,3448
2018-06-07T08:04:42.458Z,3396
2018-06-07T08:05:52.215Z,3240
2018-06-07T08:07:02.239Z,3180
2018-06-07T08:08:11.987Z,3288
2018-06-07T08:09:21.741Z,3456
2018-06-07T08:10:31.750Z,3464
2018-06-07T08:11:41.761Z,3488
2018-06-07T08:12:51.505Z,3504
2018-06-07T08:14:01.521Z,3536
2018-06-07T08:15:11.285Z,3560
2018-06-07T08:16:21.104Z,3584
2018-06-07T08:17:31.126Z,3604
2018-06-07T08:18:41.135Z,3640
2018-06-07T08:19:51.144Z,3664
2018-06-07T08:21:01.164Z,3696
2018-06-07T08:22:10.374Z,3724
2018-06-07T08:23:20.389Z,3736
2018-06-07T08:24:29.864Z,3752
2018-06-07T08:25:39.881Z,3776
2018-06-07T08:26:49.639Z,3780
2018-06-07T08:27:59.387Z,3788
2018-06-07T08:29:09.196Z,3804
2018-06-07T08:30:18.945Z,3816
2018-06-07T08:31:28.968Z,3832
2018-06-07T08:32:38.450Z,3844
2018-06-07T08:33:48.471Z,3860
2018-06-07T08:34:58.504Z,3872
2018-06-07T08:36:08.523Z,3836
2018-06-07T08:37:18.263Z,3928
2018-06-07T08:38:27.754Z,3984
2018-06-07T08:39:37.985Z,3996
2018-06-07T08:40:48.234Z,4008
2018-06-07T08:41:57.981Z,4048
2018-06-07T08:43:07.731Z,4064
2018-06-07T08:44:17.491Z,4084
2018-06-07T08:45:27.510Z,4092
2018-06-07T08:46:37.519Z,4140
2018-06-07T08:47:47.533Z,4160
2018-06-07T08:48:57.607Z,4156
2018-06-07T08:50:07.623Z,4156
2018-06-07T08:51:17.425Z,4164
2018-06-07T08:52:27.263Z,4204
2018-06-07T08:53:37.019Z,4204
2018-06-07T08:54:49.036Z,4220
2018-06-07T08:55:58.554Z,4224
2018-06-07T08:57:08.573Z,4244
2018-06-07T08:58:18.578Z,4248
2018-06-07T08:59:28.596Z,4192
2018-06-07T09:00:38.727Z,4164
2018-06-07T09:01:48.740Z,4208
2018-06-07T09:02:58.756Z,4244
2018-06-07T09:04:08.236Z,4356
2018-06-07T09:05:18.254Z,4396
2018-06-07T09:06:28.002Z,4480
2018-06-07T09:07:37.756Z,4480
2018-06-07T09:08:47.767Z,4516
2018-06-07T09:09:57.776Z,4544
2018-06-07T09:11:07.795Z,4568
2018-06-07T09:12:17.806Z,4512
2018-06-07T09:13:27.557Z,4636
2018-06-07T09:14:37.575Z,4704
2018-06-07T09:15:47.052Z,4712
2018-06-07T09:16:56.802Z,4740
2018-06-07T09:18:06.559Z,4760
2018-06-07T09:19:16.577Z,4760
2018-06-07T09:20:26.092Z,4764
2018-06-07T09:21:36.112Z,4764
2018-06-07T09:22:45.862Z,4752
2018-06-07T09:23:55.605Z,4744
2018-06-07T09:25:04.822Z,4736
2018-06-07T09:26:14.682Z,4712
2018-06-07T09:27:23.897Z,4728
2018-06-07T09:28:33.923Z,4708
2018-06-07T09:29:43.934Z,4676
2018-06-07T09:30:54.453Z,4648
2018-06-07T09:32:04.352Z,4612
2018-06-07T09:33:14.370Z,4580
2018-06-07T09:34:24.203Z,4552
2018-06-07T09:35:33.995Z,4532
2018-06-07T09:36:44.014Z,4512
2018-06-07T09:37:53.765Z,4508
2018-06-07T09:39:02.978Z,4496
2018-06-07T09:40:12.996Z,4500
2018-06-07T09:41:23.009Z,4496
2018-06-07T09:42:32.757Z,4496
2018-06-07T09:43:42.239Z,4484
2018-06-07T09:44:52.255Z,4508
2018-06-07T09:46:02.278Z,4536
2018-06-07T09:47:14.050Z,4528
2018-06-07T09:48:24.065Z,4524
2018-06-07T09:49:33.810Z,4516
2018-06-07T09:50:43.555Z,4512
2018-06-07T09:51:53.579Z,4504
2018-06-07T09:53:03.273Z,4512
2018-06-07T09:54:13.032Z,4504
2018-06-07T09:55:23.051Z,4500
2018-06-07T09:56:33.097Z,4504
2018-06-07T09:57:43.111Z,4512
2018-06-07T09:58:52.860Z,4528
2018-06-07T10:00:02.608Z,4516
2018-06-07T10:01:12.361Z,4520
2018-06-07T10:02:22.392Z,4532
2018-06-07T10:03:32.415Z,4540
2018-06-07T10:04:42.482Z,4552
2018-06-07T10:05:51.701Z,4568
2018-06-07T10:07:01.452Z,4576
2018-06-07T10:08:11.194Z,4596
2018-06-07T10:09:21.212Z,4604
2018-06-07T10:10:31.274Z,4616
2018-06-07T10:11:41.289Z,4616
2018-06-07T10:12:51.037Z,4624
2018-06-07T10:14:01.065Z,4640
2018-06-07T10:15:11.082Z,4648
2018-06-07T10:16:20.959Z,4644
2018-06-07T10:17:31.069Z,4660
2018-06-07T10:18:40.861Z,4680
2018-06-07T10:19:50.617Z,4684
2018-06-07T10:21:00.364Z,4696
2018-06-07T10:22:09.682Z,4772
2018-06-07T10:23:19.428Z,4736
2018-06-07T10:24:28.911Z,4744
2018-06-07T10:25:38.656Z,4752
2018-06-07T10:26:48.406Z,4768
2018-06-07T10:27:58.217Z,4788
2018-06-07T10:29:08.282Z,4812
2018-06-07T10:30:18.378Z,4824
2018-06-07T10:31:28.394Z,4844
2018-06-07T10:32:37.877Z,4852
2018-06-07T10:33:47.896Z,4860
2018-06-07T10:34:57.651Z,4876
2018-06-07T10:36:07.405Z,4884
2018-06-07T10:37:17.152Z,4904
2018-06-07T10:38:27.172Z,4908
2018-06-07T10:39:39.192Z,4928
2018-06-07T10:40:49.126Z,4944
2018-06-07T10:41:59.141Z,4964
2018-06-07T10:43:08.360Z,4980
2018-06-07T10:44:17.586Z,4996
2018-06-07T10:45:27.067Z,5016
2018-06-07T10:46:36.829Z,5036
2018-06-07T10:47:46.850Z,5056
2018-06-07T10:48:56.862Z,5072
2018-06-07T10:50:06.894Z,5096
2018-06-07T10:51:16.755Z,5120
2018-06-07T10:52:26.535Z,5148
2018-06-07T10:53:36.285Z,5176
2018-06-07T10:54:45.773Z,5208
2018-06-07T10:55:55.791Z,5240
2018-06-07T10:57:05.861Z,5272
2018-06-07T10:58:15.621Z,5304
2018-06-07T10:59:25.656Z,5336
2018-06-07T11:00:35.406Z,5364
2018-06-07T11:01:45.420Z,5380
2018-06-07T11:02:55.269Z,5392
2018-06-07T11:04:04.489Z,5400
2018-06-07T11:05:13.972Z,5424
2018-06-07T11:06:23.723Z,5440
2018-06-07T11:07:33.743Z,5464
2018-06-07T11:08:43.810Z,5496
2018-06-07T11:09:53.842Z,5536
2018-06-07T11:11:03.603Z,5560
2018-06-07T11:12:13.629Z,5580
2018-06-07T11:13:23.721Z,5616
2018-06-07T11:14:33.806Z,5648
2018-06-07T11:15:43.890Z,5684
2018-06-07T11:16:53.657Z,5744
2018-06-07T11:18:03.422Z,5772
2018-06-07T11:19:13.461Z,5800
2018-06-07T11:20:23.309Z,5844
2018-06-07T11:21:33.323Z,5876
2018-06-07T11:22:42.802Z,6784
2018-06-07T11:23:53.536Z,6812
2018-06-07T11:25:03.628Z,6852
2018-06-07T11:26:13.107Z,6884
2018-06-07T11:27:22.598Z,6948
2018-06-07T11:28:32.621Z,7044
2018-06-07T11:29:42.366Z,7108
2018-06-07T11:30:52.110Z,7216
2018-06-07T11:32:01.858Z,7424
2018-06-07T11:33:11.618Z,8028
2018-06-07T11:34:21.372Z,9296
2018-06-07T11:35:31.390Z,16608
2018-06-07T11:36:41.157Z,67008
2018-06-07T11:37:51.172Z,96512
2018-06-07T11:39:00.651Z,95008
2018-06-07T11:40:09.877Z,93472
2018-06-07T11:41:19.630Z,94272
2018-06-07T11:42:29.662Z,89952
2018-06-07T11:43:39.144Z,89536
2018-06-07T11:44:49.170Z,95520
2018-06-07T11:45:59.276Z,94240
2018-06-07T11:47:09.308Z,92512
2018-06-07T11:48:19.325Z,89600
2018-06-07T11:49:29.082Z,93600
2018-06-07T11:50:38.844Z,92416
2018-06-07T11:51:48.358Z,88736
2018-06-07T11:52:57.848Z,91232
2018-06-07T11:54:07.906Z,87712
2018-06-07T11:55:17.934Z,86688
2018-06-07T11:56:27.690Z,85184
2018-06-07T11:57:37.724Z,86496
2018-06-07T11:58:47.749Z,92096
2018-06-07T11:59:57.238Z,88992
2018-06-07T12:01:07.271Z,87072
2018-06-07T12:02:17.030Z,89952
2018-06-07T12:03:27.067Z,96032
2018-06-07T12:04:37.094Z,91776
2018-06-07T12:05:46.317Z,90688
2018-06-07T12:06:56.073Z,86464
2018-06-07T12:08:06.108Z,82496
2018-06-07T12:09:16.136Z,83296
2018-06-07T12:10:25.907Z,81344
2018-06-07T12:11:35.936Z,74912
2018-06-07T12:12:45.780Z,76416
2018-06-07T12:13:55.533Z,81504
2018-06-07T12:15:05.035Z,88416
2018-06-07T12:16:13.999Z,86176
2018-06-07T12:17:23.234Z,83136
2018-06-07T12:18:33.258Z,77280
2018-06-07T12:19:43.283Z,80128
2018-06-07T12:20:53.311Z,82208
2018-06-07T12:22:03.393Z,85120
2018-06-07T12:23:13.154Z,90976
2018-06-07T12:24:22.914Z,97120
2018-06-07T12:25:32.686Z,90016
2018-06-07T12:26:42.451Z,89760
2018-06-07T12:27:52.483Z,90432
2018-06-07T12:29:02.246Z,88512
2018-06-07T12:30:12.032Z,82976
2018-06-07T12:31:22.061Z,81088
2018-06-07T12:32:32.090Z,81600
2018-06-07T12:33:42.122Z,73152
2018-06-07T12:34:52.164Z,65568
2018-06-07T12:36:02.195Z,68096
2018-06-07T12:37:11.706Z,77824
2018-06-07T12:38:21.763Z,85728
2018-06-07T12:39:31.532Z,87360
2018-06-07T12:40:41.632Z,89600
2018-06-07T12:41:51.675Z,91584
2018-06-07T12:43:01.724Z,88768
2018-06-07T12:44:11.230Z,85248
2018-06-07T12:45:20.468Z,86304
2018-06-07T12:46:30.492Z,82656
2018-06-07T12:47:40.270Z,74752
2018-06-07T12:48:50.305Z,78880
2018-06-07T12:49:59.811Z,84768
2018-06-07T12:51:09.887Z,84352
2018-06-07T12:52:19.675Z,88512
2018-06-07T12:53:29.708Z,89024
2018-06-07T12:54:39.740Z,83072
2018-06-07T12:55:49.253Z,85376
2018-06-07T12:56:59.294Z,90624
2018-06-07T12:58:09.134Z,96960
2018-06-07T12:59:18.897Z,98112
2018-06-07T13:00:28.454Z,94848
2018-06-07T13:01:37.665Z,93760
2018-06-07T13:02:47.165Z,93696
2018-06-07T13:03:56.666Z,96384
2018-06-07T13:05:06.172Z,96320
2018-06-07T13:06:15.943Z,92448
2018-06-07T13:07:25.713Z,92640
2018-06-07T13:08:35.484Z,94496
2018-06-07T13:09:45.249Z,94048
2018-06-07T13:10:55.296Z,88608
2018-06-07T13:12:05.060Z,81568
2018-06-07T13:13:14.832Z,81760
2018-06-07T13:14:24.611Z,85632
2018-06-07T13:15:34.113Z,88992
2018-06-07T13:16:44.157Z,81824
2018-06-07T13:17:54.184Z,82240
2018-06-07T13:19:03.957Z,91072
2018-06-07T13:20:13.736Z,91968
2018-06-07T13:21:23.234Z,92352
2018-06-07T13:22:32.728Z,89216
2018-06-07T13:23:42.766Z,84736
2018-06-07T13:24:52.806Z,81024
2018-06-07T13:26:02.574Z,81376
2018-06-07T13:27:12.083Z,74400
2018-06-07T13:28:21.326Z,81664
2018-06-07T13:29:31.103Z,89088
2018-06-07T13:30:40.874Z,83648
2018-06-07T13:31:50.376Z,78816
2018-06-07T13:33:00.141Z,78016
2018-06-07T13:34:09.915Z,79552
2018-06-07T13:35:19.771Z,75488
2018-06-07T13:36:29.803Z,74336
2018-06-07T13:37:39.831Z,72864
2018-06-07T13:38:49.867Z,70720
2018-06-07T13:39:59.905Z,73056
2018-06-07T13:41:09.136Z,76064
2018-06-07T13:42:19.175Z,80960
2018-06-07T13:43:28.951Z,86400
2018-06-07T13:44:38.451Z,88480
2018-06-07T13:45:48.487Z,89504
2018-06-07T13:46:58.259Z,91968
2018-06-07T13:48:07.760Z,91136
2018-06-07T13:49:17.800Z,89280
2018-06-07T13:50:27.880Z,86432
2018-06-07T13:51:37.709Z,93280
2018-06-07T13:52:47.742Z,101952
2018-06-07T13:53:57.249Z,103872
2018-06-07T13:55:07.291Z,103648
2018-06-07T13:56:17.324Z,100704
2018-06-07T13:57:27.357Z,96640
2018-06-07T13:58:37.397Z,95328
2018-06-07T13:59:47.160Z,94560
2018-06-07T14:00:56.657Z,93824
2018-06-07T14:02:06.424Z,88736
2018-06-07T14:03:18.460Z,84768
2018-06-07T14:04:27.961Z,87008
2018-06-07T14:05:37.719Z,85696
2018-06-07T14:06:47.495Z,90016
2018-06-07T14:07:56.994Z,87488
2018-06-07T14:09:06.758Z,87872
2018-06-07T14:10:16.555Z,84192
2018-06-07T14:11:26.587Z,79552
2018-06-07T14:12:36.349Z,77152
2018-06-07T14:13:46.386Z,77920
2018-06-07T14:14:56.422Z,69824
2018-06-07T14:16:06.457Z,71008
2018-06-07T14:17:16.572Z,79264
2018-06-07T14:18:26.723Z,75392
2018-06-07T14:19:36.492Z,67648
2018-06-07T14:20:46.524Z,64640
2018-06-07T14:21:56.558Z,71680
2018-06-07T14:23:06.595Z,76256
2018-06-07T14:24:16.627Z,79776
2018-06-07T14:25:26.397Z,80864
2018-06-07T14:26:35.894Z,79936
2018-06-07T14:27:45.131Z,80064
2018-06-07T14:28:54.897Z,83904
2018-06-07T14:30:04.397Z,82048
2018-06-07T14:31:14.169Z,78944
2018-06-07T14:32:23.933Z,77216
2018-06-07T14:33:33.983Z,76832
2018-06-07T14:34:44.017Z,71488
2018-06-07T14:35:54.048Z,71040
2018-06-07T14:37:03.825Z,72192
2018-06-07T14:38:13.858Z,71200
2018-06-07T14:39:23.894Z,74336
2018-06-07T14:40:33.662Z,77184
2018-06-07T14:41:43.165Z,77088
2018-06-07T14:42:53.207Z,75616
2018-06-07T14:44:02.976Z,75904
2018-06-07T14:45:12.744Z,75040
2018-06-07T14:46:22.783Z,76000
2018-06-07T14:47:32.545Z,80800
2018-06-07T14:48:42.577Z,80416
2018-06-07T14:49:52.339Z,76672
2018-06-07T14:51:02.374Z,77152
2018-06-07T14:52:12.153Z,76448
2018-06-07T14:53:21.920Z,73632
2018-06-07T14:54:31.486Z,71872
2018-06-07T14:55:41.287Z,75616
2018-06-07T14:56:51.320Z,78080
2018-06-07T14:58:01.362Z,80864
2018-06-07T14:59:10.860Z,90720
2018-06-07T15:00:20.620Z,91008
2018-06-07T15:01:30.385Z,77344
2018-06-07T15:02:40.440Z,62464
2018-06-07T15:03:50.211Z,53568
2018-06-07T15:04:59.976Z,48864
2018-06-07T15:06:10.022Z,46528
2018-06-07T15:07:20.057Z,46752
2018-06-07T15:08:29.834Z,47200
2018-06-07T15:09:39.065Z,48512
2018-06-07T15:10:48.828Z,49216
2018-06-07T15:11:58.860Z,48928
2018-06-07T15:13:08.624Z,51520
2018-06-07T15:14:18.553Z,53152
2018-06-07T15:15:28.739Z,60320
2018-06-07T15:16:38.778Z,69440
2018-06-07T15:17:48.809Z,70784
2018-06-07T15:18:58.593Z,71712
2018-06-07T15:20:08.376Z,69888
2018-06-07T15:21:18.412Z,71584
2018-06-07T15:22:28.441Z,72096
2018-06-07T15:23:38.477Z,69312
2018-06-07T15:24:47.978Z,69632
2018-06-07T15:25:57.745Z,78432
2018-06-07T15:27:07.782Z,82720
2018-06-07T15:28:17.551Z,84064
2018-06-07T15:29:27.315Z,82912
2018-06-07T15:30:37.080Z,82464
2018-06-07T15:31:46.596Z,85632
2018-06-07T15:32:56.633Z,85120
2018-06-07T15:34:06.393Z,85184
2018-06-07T15:35:16.424Z,87904
2018-06-07T15:36:26.467Z,88640